This is the latest recevied weather packets stored in our database for station/object MB7UCW-13. If no packets are shown the sender has not sent any weather packets the latest 10 day(s).
| Time | Temp. | Humidity | Pressure | Rain* | Wind** | Luminosity | Snow |
|---|---|---|---|---|---|---|---|
| 1778132703 | 7.22° C | 87% | 1015.5 hPa | 0 mm | - | 26 W/m² | - |
| 1778124624 | 6.67° C | 87% | 1015.5 hPa | 0 mm | - | 0 W/m² | - |
| 1778122803 | 6.11° C | 86% | 1015.4 hPa | 0 mm | - | 0 W/m² | - |
| 1778121003 | 6.67° C | 86% | 1015.4 hPa | 0 mm | - | 0 W/m² | - |
| 1778120103 | 6.67° C | 85% | 1015.4 hPa | 0 mm | - | 0 W/m² | - |
| 1778119203 | 7.22° C | 85% | 1015.4 hPa | 0 mm | - | 0 W/m² | - |
| 1778116503 | 7.22° C | 85% | 1015.9 hPa | 0 mm | - | 0 W/m² | - |
| 1778106603 | 8.89° C | 80% | 1015.6 hPa | 0 mm | - | 0 W/m² | - |
| 1778093103 | 12.22° C | 60% | 1014.3 hPa | 0 mm | - | 26 W/m² | - |
| 1778088603 | 13.89° C | 51% | 1014.1 hPa | 0 mm | - | 118 W/m² | - |
| 1778078703 | 15.56° C | 45% | 1014.2 hPa | 0 mm | - | 237 W/m² | - |
| 1778062524 | 12.22° C | 62% | 1015.5 hPa | 0 mm | - | 809 W/m² | - |
| 1778060703 | 12.22° C | 62% | 1015.7 hPa | 0 mm | - | 772 W/m² | - |
| 1778052603 | 8.89° C | 72% | 1015.9 hPa | 0 mm | - | 260 W/m² | - |
| 1778046303 | 7.78° C | 78% | 1015.4 hPa | 0 mm | - | 40 W/m² | - |
| 1778045403 | 7.78° C | 78% | 1015.2 hPa | 0 mm | - | 26 W/m² | - |
| 1778040903 | 7.22° C | 80% | 1015.3 hPa | 0 mm | - | 0 W/m² | - |
| 1778038203 | 7.78° C | 78% | 1015.4 hPa | 0 mm | - | 0 W/m² | - |
| 1778037303 | 7.78° C | 79% | 1015.5 hPa | 0 mm | - | 0 W/m² | - |
| 1778034603 | 8.33° C | 76% | 1015.3 hPa | 0 mm | - | 0 W/m² | - |
| 1778033703 | 8.33° C | 75% | 1015.3 hPa | 0 mm | - | 0 W/m² | - |
| 1778030103 | 8.89° C | 76% | 1015.4 hPa | 0 mm | - | 0 W/m² | - |
| 1778020203 | 10° C | 76% | 1015.5 hPa | 0 mm | - | 0 W/m² | - |
| 1778013024 | 10.56° C | 79% | 1014.9 hPa | 0 mm | - | 0 W/m² | - |
| 1778004003 | 12.78° C | 71% | 1014.4 hPa | 0 mm | - | 93 W/m² | - |
* Rain latest hour (hover to see other rain measurements)
** Current wind speed in m/s (hover to see current wind gust speed)